Time;durP1;ratioP1;P1;durP2;ratioP2;P2;SDS_P1;SDS_P2;PMS_P1;PMS_P2;Temp;Humidity;BMP_temperature;BMP_pressure;BME280_temperature;BME280_humidity;BME280_pressure;Samples;Min_cycle;Max_cycle;Signal;HPM_P1;HPM_P2
2022/08/28 00:01:33;;;;;;;14.75;11.30;;;;;;;20.78;67.72;98099.25;4996735;28;20045;-76
2022/08/28 00:03:59;;;;;;;15.68;10.63;;;;;;;20.78;67.83;98090.91;4997333;28;20404;-76
2022/08/28 00:06:25;;;;;;;14.38;10.18;;;;;;;20.76;68.09;98089.66;4997784;28;20081;-77
2022/08/28 00:08:50;;;;;;;15.20;10.70;;;;;;;20.76;67.84;98089.66;5003001;28;20034;-75
2022/08/28 00:11:16;;;;;;;13.85;10.95;;;;;;;20.74;67.67;98086.44;4994568;28;20027;-73
2022/08/28 00:13:41;;;;;;;17.13;11.27;;;;;;;20.73;67.78;98087.59;4994053;28;20057;-75
2022/08/28 00:16:07;;;;;;;16.70;11.80;;;;;;;20.72;68.12;98077.63;5002212;28;20038;-75
2022/08/28 00:18:33;;;;;;;23.17;14.63;;;;;;;20.69;67.91;98076.38;5000690;28;20030;-75
2022/08/28 00:21:00;;;;;;;21.17;14.13;;;;;;;20.69;67.97;98076.38;4998634;28;20392;-75
2022/08/28 00:23:26;;;;;;;25.40;15.23;;;;;;;20.67;67.96;98079.56;4997244;28;20121;-74
2022/08/28 00:25:52;;;;;;;20.25;13.32;;;;;;;20.66;68.04;98066.00;4996540;28;20030;-75
2022/08/28 00:28:17;;;;;;;21.27;13.25;;;;;;;20.65;68.00;98069.94;4995296;28;20034;-76
2022/08/28 00:30:49;;;;;;;21.05;13.20;;;;;;;20.62;67.89;98073.47;5000021;28;20369;-77
2022/08/28 00:33:20;;;;;;;20.00;12.90;;;;;;;20.59;68.03;98068.66;5003186;28;20590;-77
2022/08/28 00:35:47;;;;;;;19.75;12.15;;;;;;;20.57;68.25;98074.63;5006861;28;20045;-77
2022/08/28 00:38:13;;;;;;;19.55;12.40;;;;;;;20.55;68.14;98073.38;5005692;28;20117;-77
2022/08/28 00:40:41;;;;;;;17.52;11.57;;;;;;;20.51;68.14;98074.13;5002374;28;21068;-79
2022/08/28 00:43:08;;;;;;;23.15;13.80;;;;;;;20.50;68.11;98085.63;5002785;28;20392;-78
2022/08/28 00:45:34;;;;;;;19.20;11.65;;;;;;;20.46;68.12;98084.75;5004332;28;20472;-77
2022/08/28 00:48:01;;;;;;;18.20;11.57;;;;;;;20.45;68.44;98075.63;5004726;28;20104;-77
2022/08/28 00:52:04;;;;;;;15.90;11.68;;;;;;;20.45;68.63;98078.41;5001374;28;20519;-77
2022/08/28 00:53:20;;;;;;;15.45;11.38;;;;;;;20.45;68.65;98080.38;5004949;28;20139;-76
2022/08/28 00:55:46;;;;;;;17.75;10.88;;;;;;;20.42;68.81;98079.16;5003740;28;20412;-77
2022/08/28 00:58:12;;;;;;;14.15;10.70;;;;;;;20.41;68.81;98076.72;5000355;28;20022;-78
2022/08/28 01:00:39;;;;;;;17.35;11.40;;;;;;;20.43;68.73;98083.53;5001022;28;20060;-78
2022/08/28 01:03:05;;;;;;;18.85;12.80;;;;;;;20.42;68.90;98086.69;4996577;28;20567;-78
2022/08/28 01:05:34;;;;;;;17.58;13.45;;;;;;;20.46;69.32;98081.97;4998700;28;20109;-77
2022/08/28 01:08:03;;;;;;;18.23;13.48;;;;;;;20.45;69.41;98078.41;4999954;28;20026;-78
2022/08/28 01:10:30;;;;;;;22.45;13.82;;;;;;;20.44;69.47;98068.44;5000674;28;20423;-78
2022/08/28 01:12:57;;;;;;;19.58;15.07;;;;;;;20.46;69.92;98076.41;5002481;28;20120;-78
2022/08/28 01:15:30;;;;;;;19.13;14.27;;;;;;;20.45;69.84;98074.78;5001573;28;20042;-79
2022/08/28 01:18:06;;;;;;;21.48;14.30;;;;;;;20.46;69.89;98074.44;5002465;28;20519;-78
2022/08/28 01:20:34;;;;;;;18.88;14.45;;;;;;;20.47;69.92;98069.66;4994403;28;20026;-79
2022/08/28 01:23:16;;;;;;;17.83;14.32;;;;;;;20.47;70.21;98072.44;5002469;28;20057;-80
2022/08/28 01:25:41;;;;;;;22.30;14.10;;;;;;;20.48;70.07;98074.88;5002766;28;20064;-77
2022/08/28 01:28:11;;;;;;;18.58;13.00;;;;;;;20.50;69.97;98074.50;5005720;28;20073;-78
2022/08/28 01:30:39;;;;;;;18.25;13.95;;;;;;;20.51;70.00;98079.69;5004395;28;20140;-78
2022/08/28 01:33:04;;;;;;;17.52;12.95;;;;;;;20.54;70.15;98083.72;5004794;28;20032;-80
2022/08/28 01:35:33;;;;;;;19.90;13.85;;;;;;;20.56;70.25;98077.78;4999966;28;20029;-80
2022/08/28 01:37:59;;;;;;;18.85;12.98;;;;;;;20.57;69.91;98079.41;5006948;28;20498;-80
2022/08/28 01:40:34;;;;;;;14.77;11.48;;;;;;;20.57;70.04;98088.53;5000429;28;20033;-77
2022/08/28 01:43:13;;;;;;;19.77;11.88;;;;;;;20.57;69.84;98084.97;5000418;28;20053;-80
2022/08/28 01:45:43;;;;;;;14.45;11.07;;;;;;;20.58;70.32;98084.56;4998465;28;20036;-77
2022/08/28 01:48:11;;;;;;;14.30;11.50;;;;;;;20.60;70.22;98090.59;4998963;28;20029;-78
2022/08/28 01:50:36;;;;;;;16.70;10.70;;;;;;;20.61;70.16;98091.38;5007418;28;20565;-76
2022/08/28 01:53:04;;;;;;;16.48;11.77;;;;;;;20.64;70.02;98093.41;5007493;28;20022;-77
2022/08/28 01:55:34;;;;;;;17.63;12.40;;;;;;;20.63;70.06;98089.03;5008276;28;20033;-76
2022/08/28 01:58:03;;;;;;;14.55;12.00;;;;;;;20.62;70.33;98095.78;5008399;28;20018;-76
2022/08/28 02:00:29;;;;;;;16.42;11.93;;;;;;;20.62;70.20;98088.22;4992026;28;20026;-76
2022/08/28 02:02:57;;;;;;;15.05;10.80;;;;;;;20.61;70.13;98096.94;4994331;28;20488;-75
2022/08/28 02:05:24;;;;;;;13.68;10.27;;;;;;;20.59;70.09;98102.09;4997593;28;20337;-76
2022/08/28 02:07:50;;;;;;;14.80;9.95;;;;;;;20.56;70.16;98102.84;5001537;28;20033;-76
2022/08/28 02:10:16;;;;;;;16.88;10.88;;;;;;;20.56;70.17;98098.06;4999332;28;20116;-76
2022/08/28 02:12:42;;;;;;;14.73;11.18;;;;;;;20.53;70.00;98094.06;5000001;28;20041;-76
2022/08/28 02:15:09;;;;;;;14.45;11.25;;;;;;;20.55;70.12;98106.81;4999700;28;20029;-74
2022/08/28 02:17:34;;;;;;;15.23;11.10;;;;;;;20.52;70.13;98109.16;4998035;28;20030;-76
2022/08/28 02:19:59;;;;;;;14.57;11.10;;;;;;;20.53;70.16;98109.97;4996333;28;20040;-75
2022/08/28 02:22:25;;;;;;;14.57;11.32;;;;;;;20.52;70.13;98109.16;4989292;28;20532;-76
2022/08/28 02:24:51;;;;;;;16.77;11.88;;;;;;;20.49;70.16;98121.06;4992583;28;20033;-75
2022/08/28 02:27:16;;;;;;;15.93;12.38;;;;;;;20.49;70.04;98120.22;5001241;28;20026;-75
2022/08/28 02:29:42;;;;;;;16.98;12.63;;;;;;;20.46;70.31;98120.97;5000333;28;20934;-75
2022/08/28 02:32:09;;;;;;;17.33;13.02;;;;;;;20.44;70.01;98117.75;4997353;28;20121;-76
2022/08/28 02:34:34;;;;;;;17.63;12.57;;;;;;;20.42;70.03;98112.56;5001428;28;20076;-75
2022/08/28 02:37:00;;;;;;;18.65;12.88;;;;;;;20.40;69.95;98119.66;4998807;28;20496;-74
2022/08/28 02:39:26;;;;;;;15.98;11.82;;;;;;;20.37;69.98;98108.13;5001961;28;20101;-76
2022/08/28 02:41:52;;;;;;;15.23;11.65;;;;;;;20.35;70.18;98106.88;5001238;28;20435;-75
2022/08/28 02:44:17;;;;;;;14.35;10.90;;;;;;;20.33;69.98;98100.84;4998236;28;20057;-75
2022/08/28 02:46:42;;;;;;;15.48;10.48;;;;;;;20.32;70.09;98099.25;4997209;28;20030;-74
2022/08/28 02:49:08;;;;;;;12.00;9.68;;;;;;;20.31;70.15;98094.84;5000317;28;20444;-74
2022/08/28 02:51:34;;;;;;;14.57;9.38;;;;;;;20.28;70.37;98098.38;5002132;28;20468;-75
2022/08/28 02:54:00;;;;;;;13.07;9.75;;;;;;;20.28;70.45;98098.38;5003043;28;20052;-76
2022/08/28 02:56:26;;;;;;;13.85;9.63;;;;;;;20.28;70.70;98093.63;5001278;28;20699;-76
2022/08/28 02:58:52;;;;;;;13.05;9.73;;;;;;;20.28;70.44;98095.59;4999787;28;20479;-76
2022/08/28 03:01:17;;;;;;;14.30;10.00;;;;;;;20.28;70.53;98101.97;4998152;28;20084;-76
2022/08/28 03:03:42;;;;;;;12.35;9.10;;;;;;;20.28;70.71;98106.72;5003209;28;20477;-76
2022/08/28 03:06:11;;;;;;;14.20;9.23;;;;;;;20.27;70.83;98100.38;5005976;28;20025;-75
2022/08/28 03:08:37;;;;;;;14.07;9.48;;;;;;;20.25;70.73;98105.50;5005347;28;20601;-76
2022/08/28 03:11:03;;;;;;;12.20;8.18;;;;;;;20.23;71.11;98105.84;5001030;28;20026;-77
2022/08/28 03:13:29;;;;;;;13.27;8.60;;;;;;;20.27;71.02;98099.56;5004414;28;20076;-76
2022/08/28 03:15:55;;;;;;;13.75;8.85;;;;;;;20.28;70.99;98095.59;5006294;28;20080;-77
2022/08/28 03:18:21;;;;;;;13.43;9.00;;;;;;;20.29;70.98;98098.03;5004303;28;20715;-77
2022/08/28 03:20:47;;;;;;;12.38;9.35;;;;;;;20.31;71.18;98095.66;4999847;28;20022;-77
2022/08/28 03:23:25;;;;;;;10.07;8.52;;;;;;;20.32;71.15;98093.69;5004753;28;20515;-77
2022/08/28 03:26:08;;;;;;;11.63;9.35;;;;;;;20.33;71.01;98098.06;5009694;28;20111;-77
2022/08/28 03:28:38;;;;;;;13.90;9.70;;;;;;;20.32;71.13;98102.84;5002543;28;20088;-77
2022/08/28 03:31:04;;;;;;;;;;;;;;;20.31;70.83;98112.38;5005083;28;20103;-77
2022/08/28 03:33:31;;;;;;;13.57;11.25;;;;;;;20.29;71.04;98113.91;5006965;28;19976;-77
2022/08/28 03:35:58;;;;;;;14.02;10.95;;;;;;;20.29;71.17;98119.47;5005629;28;20515;-77
2022/08/28 03:38:23;;;;;;;16.42;11.02;;;;;;;20.28;70.94;98131.78;5008167;28;20500;-77
2022/08/28 03:40:50;;;;;;;16.80;11.38;;;;;;;20.25;71.27;98126.97;5007428;28;20025;-76
2022/08/28 03:43:22;;;;;;;15.38;11.70;;;;;;;20.21;71.10;98122.13;5004018;28;20103;-76
2022/08/28 03:45:56;;;;;;;17.33;11.80;;;;;;;20.19;71.06;98129.25;5003467;28;20117;-76
2022/08/28 03:48:23;;;;;;;15.30;11.18;;;;;;;20.19;71.18;98134.81;5021400;28;20034;-77
2022/08/28 03:50:48;;;;;;;14.20;11.38;;;;;;;20.19;71.52;98138.38;5007271;28;20030;-76
2022/08/28 03:53:14;;;;;;;17.67;11.77;;;;;;;20.20;71.19;98144.78;5005090;28;20052;-76
2022/08/28 03:55:41;;;;;;;15.70;11.85;;;;;;;20.18;71.39;98144.34;5008958;28;20468;-77
2022/08/28 03:58:07;;;;;;;14.27;11.10;;;;;;;20.13;71.22;98144.63;5005033;28;20135;-77
2022/08/28 04:00:33;;;;;;;16.75;11.15;;;;;;;20.09;71.69;98147.38;5001230;28;20130;-77
2022/08/28 04:02:59;;;;;;;18.52;11.35;;;;;;;20.07;71.45;98150.50;4998339;28;20042;-76
2022/08/28 04:05:25;;;;;;;15.82;11.40;;;;;;;20.03;71.72;98151.63;5003980;28;20038;-78
2022/08/28 04:07:51;;;;;;;14.00;11.10;;;;;;;19.99;71.81;98154.31;5005160;28;20053;-77
2022/08/28 04:10:18;;;;;;;14.85;11.07;;;;;;;19.96;71.92;98148.69;5007549;28;20030;-77
2022/08/28 04:12:44;;;;;;;17.27;11.20;;;;;;;19.92;72.03;98145.84;5006586;28;20038;-77
2022/08/28 04:15:10;;;;;;;16.27;10.85;;;;;;;19.90;71.93;98151.75;5002420;28;20390;-77
2022/08/28 04:17:37;;;;;;;14.02;10.90;;;;;;;19.88;72.09;98142.97;5005175;28;20050;-77
2022/08/28 04:20:03;;;;;;;15.07;10.48;;;;;;;19.87;72.14;98149.66;5009998;28;20101;-77
2022/08/28 04:22:29;;;;;;;15.35;10.48;;;;;;;19.87;72.10;98154.44;5006024;28;20057;-76
2022/08/28 04:24:55;;;;;;;15.48;10.90;;;;;;;19.88;72.38;98154.09;5005102;28;20113;-78
2022/08/28 04:27:21;;;;;;;14.50;10.65;;;;;;;19.90;72.31;98146.19;5006780;28;20498;-77
2022/08/28 04:29:47;;;;;;;15.80;11.13;;;;;;;19.93;72.30;98151.03;5007721;28;20080;-77
2022/08/28 04:32:13;;;;;;;12.95;10.77;;;;;;;19.96;72.37;98151.47;5004147;28;20022;-77
2022/08/28 04:34:39;;;;;;;16.00;11.35;;;;;;;19.98;72.24;98158.25;5006758;28;20032;-77
2022/08/28 04:37:05;;;;;;;14.13;11.90;;;;;;;19.99;72.47;98167.44;5003033;28;20033;-76
2022/08/28 04:39:31;;;;;;;18.40;11.95;;;;;;;19.98;72.53;98168.59;5005335;28;20144;-77
2022/08/28 04:41:56;;;;;;;15.55;12.05;;;;;;;19.99;72.40;98167.44;5008112;28;20475;-77
2022/08/28 04:44:21;;;;;;;14.85;11.82;;;;;;;19.98;72.30;98161.03;5005096;28;20552;-78
2022/08/28 04:46:47;;;;;;;16.63;12.30;;;;;;;20.00;72.32;98169.03;5008403;28;20026;-77
2022/08/28 04:49:14;;;;;;;17.92;12.82;;;;;;;20.00;72.39;98160.69;5008941;28;20034;-77
2022/08/28 04:51:40;;;;;;;17.02;12.40;;;;;;;20.01;72.45;98165.09;5005766;28;20048;-77
2022/08/28 04:54:06;;;;;;;16.77;12.75;;;;;;;20.00;72.55;98166.25;5009059;28;20037;-78
2022/08/28 04:56:33;;;;;;;19.67;12.82;;;;;;;20.01;72.90;98159.53;5006113;28;20062;-78
2022/08/28 04:59:02;;;;;;;17.75;13.00;;;;;;;19.98;72.72;98163.03;5004308;28;20084;-77
2022/08/28 05:01:28;;;;;;;;;;;;;;;19.99;72.30;98175.78;5005434;28;20113;-76
2022/08/28 05:03:56;;;;;;;15.52;11.63;;;;;;;19.99;72.58;98171.00;5003570;28;20024;-77
2022/08/28 05:06:25;;;;;;;15.90;12.68;;;;;;;19.99;72.58;98168.22;5006308;28;20120;-78
2022/08/28 05:08:51;;;;;;;16.48;12.85;;;;;;;20.01;72.70;98167.88;5008798;28;20022;-78
2022/08/28 05:11:20;;;;;;;18.15;12.48;;;;;;;20.04;72.78;98165.16;5009551;28;20113;-77
2022/08/28 05:13:47;;;;;;;20.13;13.15;;;;;;;20.09;72.89;98169.63;5008591;28;20041;-78
2022/08/28 05:16:14;;;;;;;19.75;12.60;;;;;;;20.11;72.72;98175.66;5009022;28;20022;-77
2022/08/28 05:18:40;;;;;;;18.63;12.32;;;;;;;20.13;72.96;98175.25;5008640;28;20048;-77
2022/08/28 05:21:14;;;;;;;17.05;12.70;;;;;;;20.12;72.87;98176.44;5008799;28;20500;-78
2022/08/28 05:23:39;;;;;;;16.50;12.45;;;;;;;20.11;73.20;98177.59;5005101;28;20074;-76
2022/08/28 05:26:10;;;;;;;16.95;12.10;;;;;;;20.11;73.02;98170.06;5008793;28;20061;-77
2022/08/28 05:28:36;;;;;;;18.52;13.35;;;;;;;20.15;73.32;98168.16;5007352;28;20026;-78
2022/08/28 05:31:20;;;;;;;18.05;13.20;;;;;;;20.18;73.30;98166.63;5004577;28;20026;-77
2022/08/28 05:33:47;;;;;;;17.08;12.95;;;;;;;20.19;73.33;98163.44;5005972;28;20105;-77
2022/08/28 05:36:13;;;;;;;18.85;13.05;;;;;;;20.21;73.81;98169.47;5004793;28;20025;-78
2022/08/28 05:38:39;;;;;;;18.17;13.10;;;;;;;20.19;73.33;98174.59;5008187;28;20484;-77
2022/08/28 05:41:05;;;;;;;20.08;12.75;;;;;;;20.23;73.52;98163.53;5004225;28;20030;-77
2022/08/28 05:43:31;;;;;;;22.23;14.13;;;;;;;20.27;73.65;98160.81;5005142;28;20034;-78
2022/08/28 05:45:58;;;;;;;19.40;13.45;;;;;;;20.30;73.50;98160.91;5004143;28;21918;-77
2022/08/28 05:48:26;;;;;;;18.95;13.45;;;;;;;20.35;73.88;98155.03;5004288;28;20045;-77
2022/08/28 05:50:52;;;;;;;18.90;13.35;;;;;;;20.39;73.68;98143.94;5006133;28;20534;-78
2022/08/28 05:53:18;;;;;;;19.20;13.30;;;;;;;20.47;73.52;98153.22;5002803;28;20025;-77
2022/08/28 05:55:44;;;;;;;17.83;12.93;;;;;;;20.50;73.88;98149.69;5003151;28;20083;-77
2022/08/28 06:00:53;;;;;;;23.98;16.10;;;;;;;20.55;74.64;98145.81;5000890;28;20550;-77
2022/08/28 06:03:18;;;;;;;25.77;15.32;;;;;;;20.55;74.36;98143.81;5000682;28;20049;-77
2022/08/28 06:05:43;;;;;;;34.53;22.80;;;;;;;20.57;74.34;98143.47;5005219;28;20029;-78
2022/08/28 06:08:09;;;;;;;33.40;18.25;;;;;;;20.60;74.35;98148.28;5005454;28;20053;-77
2022/08/28 06:10:42;;;;;;;34.25;20.40;;;;;;;20.62;74.31;98140.34;5006841;28;20529;-77
2022/08/28 06:13:08;;;;;;;31.50;19.45;;;;;;;20.66;74.39;98149.56;5004173;28;20026;-77
2022/08/28 06:15:40;;;;;;;28.73;17.67;;;;;;;20.68;74.33;98155.59;4998780;28;20030;-77
2022/08/28 06:18:05;;;;;;;33.22;19.42;;;;;;;20.71;74.88;98165.19;5000789;28;20038;-76
2022/08/28 06:20:41;;;;;;;33.97;19.88;;;;;;;20.73;74.56;98160.84;4998555;28;20025;-78
2022/08/28 06:23:08;;;;;;;34.47;20.73;;;;;;;20.75;74.66;98166.84;5004419;28;20026;-77
2022/08/28 06:25:44;;;;;;;31.77;19.60;;;;;;;20.78;74.47;98160.56;5000831;28;20048;-77
2022/08/28 06:28:10;;;;;;;29.70;19.10;;;;;;;20.85;74.58;98159.09;5004978;28;20105;-77
2022/08/28 06:30:37;;;;;;;31.63;18.58;;;;;;;20.91;74.73;98152.81;4998384;28;20033;-77
2022/08/28 06:33:04;;;;;;;28.92;17.20;;;;;;;21.00;74.67;98149.75;5004457;28;20076;-77
2022/08/28 06:35:30;;;;;;;33.22;19.30;;;;;;;21.04;74.60;98152.63;4999835;28;20113;-77
2022/08/28 06:37:57;;;;;;;31.95;19.20;;;;;;;21.10;74.92;98151.91;5004013;28;20497;-78
2022/08/28 06:40:22;;;;;;;30.27;19.08;;;;;;;21.20;74.92;98152.47;5001946;28;20026;-77
2022/08/28 06:42:48;;;;;;;26.92;17.13;;;;;;;21.28;74.67;98151.41;5000717;28;20080;-78
2022/08/28 06:45:13;;;;;;;27.52;17.35;;;;;;;21.32;74.65;98149.47;4998944;28;20047;-77
2022/08/28 06:47:38;;;;;;;29.92;17.73;;;;;;;21.40;74.39;98153.94;4999116;28;20022;-77
2022/08/28 06:50:04;;;;;;;26.65;17.60;;;;;;;21.52;74.64;98152.13;5000845;28;20030;-77
2022/08/28 06:52:30;;;;;;;26.05;16.27;;;;;;;21.59;74.39;98159.81;4997561;28;20030;-77
2022/08/28 06:54:55;;;;;;;21.73;16.05;;;;;;;21.65;74.24;98161.91;5001738;28;20021;-78
2022/08/28 06:57:21;;;;;;;24.85;16.85;;;;;;;21.75;74.34;98162.44;5000072;28;20037;-77
2022/08/28 06:59:48;;;;;;;21.17;16.00;;;;;;;21.82;73.97;98166.13;5004807;28;20415;-77
2022/08/28 07:02:13;;;;;;;27.50;16.20;;;;;;;21.91;74.04;98165.81;4998358;28;20026;-76
2022/08/28 07:04:39;;;;;;;23.30;15.77;;;;;;;22.01;73.99;98167.94;5007927;28;20065;-75
2022/08/28 07:07:05;;;;;;;24.05;14.93;;;;;;;22.11;73.92;98165.66;5005843;28;20032;-75
2022/08/28 07:09:31;;;;;;;23.25;16.38;;;;;;;22.20;73.74;98168.97;5005344;28;20030;-75
2022/08/28 07:11:56;;;;;;;25.67;16.73;;;;;;;22.26;73.69;98161.84;5006678;28;20091;-75
2022/08/28 07:14:22;;;;;;;22.15;15.40;;;;;;;22.33;73.43;98163.94;5000095;28;20101;-75
2022/08/28 07:16:47;;;;;;;23.48;15.32;;;;;;;22.40;73.29;98157.59;5006223;28;20392;-75
2022/08/28 07:19:13;;;;;;;22.48;15.18;;;;;;;22.48;73.24;98167.69;5003320;28;20399;-75
2022/08/28 07:21:41;;;;;;;21.40;14.38;;;;;;;22.56;73.11;98168.56;5006863;28;20026;-75
2022/08/28 07:24:09;;;;;;;22.63;15.18;;;;;;;22.66;73.00;98162.28;5002917;28;20041;-75
2022/08/28 07:26:35;;;;;;;22.55;15.52;;;;;;;22.72;72.59;98168.31;5006529;28;20032;-78
2022/08/28 07:29:02;;;;;;;20.58;13.68;;;;;;;22.77;72.49;98169.97;5004316;28;20030;-76
2022/08/28 07:31:29;;;;;;;20.58;13.98;;;;;;;22.87;72.43;98175.66;5004992;28;20026;-76
2022/08/28 07:33:55;;;;;;;17.05;13.45;;;;;;;22.94;72.20;98174.09;5005285;28;20579;-75
2022/08/28 07:36:23;;;;;;;18.27;13.32;;;;;;;22.98;72.10;98170.13;5007758;28;20417;-76
2022/08/28 07:38:49;;;;;;;19.70;13.23;;;;;;;23.06;72.25;98168.19;5007152;28;20026;-76
2022/08/28 07:41:18;;;;;;;19.42;14.35;;;;;;;23.13;71.87;98168.25;5006716;28;20205;-76
2022/08/28 07:46:28;;;;;;;17.02;12.13;;;;;;;23.19;71.43;98172.31;5008157;28;20045;-75
2022/08/28 07:48:53;;;;;;;16.65;13.18;;;;;;;23.25;71.14;98171.97;5011146;28;20033;-76
2022/08/28 07:51:19;;;;;;;18.73;13.07;;;;;;;23.28;71.11;98165.59;5008139;28;20027;-76
2022/08/28 07:53:45;;;;;;;15.63;12.55;;;;;;;23.31;71.25;98168.41;5006437;28;20487;-76
2022/08/28 07:56:10;;;;;;;14.82;11.85;;;;;;;23.42;71.16;98171.31;5008795;28;20033;-76
2022/08/28 07:58:37;;;;;;;15.50;11.95;;;;;;;23.49;71.45;98174.13;5005758;28;20137;-75
2022/08/28 08:01:03;;;;;;;16.98;13.55;;;;;;;23.59;71.26;98167.00;5004557;28;20029;-75
2022/08/28 08:03:30;;;;;;;16.55;12.52;;;;;;;23.64;71.06;98171.41;5006682;28;20046;-76
2022/08/28 08:05:58;;;;;;;20.42;13.65;;;;;;;23.67;70.53;98170.63;5006630;28;20404;-76
2022/08/28 08:08:24;;;;;;;19.13;13.82;;;;;;;23.66;70.39;98165.41;5006969;28;20041;-76
2022/08/28 08:11:04;;;;;;;15.98;12.45;;;;;;;23.67;70.32;98176.25;5009321;28;20034;-76
2022/08/28 08:13:29;;;;;;;;;;;;;;;23.71;70.30;98174.25;5005745;28;20041;-76
2022/08/28 08:16:22;;;;;;;16.38;12.80;;;;;;;23.71;70.04;98170.66;5008160;28;19921;-76
2022/08/28 08:18:49;;;;;;;17.27;11.90;;;;;;;23.73;70.01;98174.66;5004814;28;20046;-76
2022/08/28 08:21:17;;;;;;;15.88;12.95;;;;;;;23.76;69.63;98176.69;5006036;28;20065;-76
2022/08/28 08:23:43;;;;;;;13.80;11.25;;;;;;;23.84;69.62;98177.53;5000536;28;20080;-76
2022/08/28 08:26:12;;;;;;;15.98;12.13;;;;;;;23.96;70.04;98176.38;5005937;28;20025;-76
2022/08/28 08:28:39;;;;;;;16.58;12.23;;;;;;;24.03;69.66;98173.63;5007254;28;20018;-76
2022/08/28 08:31:13;;;;;;;14.50;12.20;;;;;;;24.07;69.21;98176.44;5007994;28;20030;-76
2022/08/28 08:33:42;;;;;;;20.50;13.95;;;;;;;24.06;68.71;98180.44;5005956;28;20044;-76
2022/08/28 08:36:09;;;;;;;19.73;13.98;;;;;;;24.08;68.88;98178.84;5006086;28;20040;-76
2022/08/28 08:38:36;;;;;;;18.35;12.65;;;;;;;24.08;68.95;98184.47;5001085;28;20026;-76
2022/08/28 08:41:12;;;;;;;19.83;13.25;;;;;;;24.11;68.73;98182.06;5001678;28;20029;-76
2022/08/28 08:44:01;;;;;;;17.70;13.48;;;;;;;24.11;68.61;98180.06;5009790;28;20061;-76
2022/08/28 08:46:33;;;;;;;22.30;14.88;;;;;;;24.11;68.61;98182.84;4975881;28;20064;-76
2022/08/28 08:49:09;;;;;;;18.08;13.38;;;;;;;24.15;68.42;98185.69;5020058;28;20044;-76
2022/08/28 08:51:46;;;;;;;22.00;14.60;;;;;;;24.15;68.78;98189.28;5001701;28;20128;-75
2022/08/28 08:54:17;;;;;;;19.75;14.20;;;;;;;24.15;68.76;98188.50;5001150;28;20136;-76
2022/08/28 08:56:45;;;;;;;18.10;13.98;;;;;;;24.15;68.17;98194.88;5004143;28;20485;-77
2022/08/28 08:59:20;;;;;;;19.97;14.27;;;;;;;24.16;68.39;98201.31;5000178;28;20026;-77
2022/08/28 09:02:04;;;;;;;21.85;15.73;;;;;;;24.19;68.26;98203.31;4999588;28;20030;-77
2022/08/28 09:04:54;;;;;;;22.08;15.50;;;;;;;24.20;67.80;98204.91;5001015;28;20141;-76
2022/08/28 09:07:48;;;;;;;21.48;14.68;;;;;;;24.18;67.91;98207.31;5003977;28;20109;-77
2022/08/28 09:10:14;;;;;;;23.27;15.95;;;;;;;24.15;67.80;98205.31;4996126;28;20044;-76
2022/08/28 09:13:05;;;;;;;20.30;14.15;;;;;;;24.18;68.04;98210.91;5006694;28;20022;-77
2022/08/28 09:15:39;;;;;;;23.48;15.88;;;;;;;24.21;67.91;98203.72;5008116;28;20056;-77
2022/08/28 09:18:27;;;;;;;20.80;14.77;;;;;;;24.21;68.13;98210.13;5006668;28;20038;-76
2022/08/28 09:20:57;;;;;;;21.50;15.18;;;;;;;24.21;67.69;98212.91;4995561;28;20104;-76
2022/08/28 09:23:24;;;;;;;20.45;14.02;;;;;;;24.25;68.19;98203.72;4999569;28;20062;-77
2022/08/28 09:25:52;;;;;;;22.52;15.00;;;;;;;24.30;68.04;98211.75;5001064;28;20117;-77
2022/08/28 09:28:27;;;;;;;20.45;14.70;;;;;;;24.36;67.63;98212.97;5003238;28;20056;-77
2022/08/28 09:30:58;;;;;;;20.15;15.45;;;;;;;24.41;67.63;98211.78;5005240;28;20032;-77
2022/08/28 09:33:33;;;;;;;18.00;14.10;;;;;;;24.50;67.46;98217.81;5005831;28;20396;-77
2022/08/28 09:36:24;;;;;;;17.35;14.25;;;;;;;24.59;67.92;98217.44;5009181;28;20100;-77
2022/08/28 09:39:23;;;;;;;18.70;13.93;;;;;;;24.64;67.30;98217.88;5005708;28;20018;-76
2022/08/28 09:44:50;;;;;;;15.77;11.80;;;;;;;24.67;66.86;98211.44;5001682;28;20053;-77
2022/08/28 09:47:35;;;;;;;18.50;12.50;;;;;;;24.70;66.66;98215.47;5003042;28;20285;-76
2022/08/28 09:50:37;;;;;;;16.08;11.75;;;;;;;24.76;66.65;98207.47;5003799;28;20033;-76
2022/08/28 09:53:09;;;;;;;16.30;11.85;;;;;;;24.82;66.33;98215.13;4964812;28;20049;-76
2022/08/28 09:55:40;;;;;;;15.77;12.55;;;;;;;24.92;65.91;98212.72;5001429;28;20025;-76
2022/08/28 09:58:07;;;;;;;15.10;12.48;;;;;;;24.94;64.75;98216.72;4998776;28;20480;-76
2022/08/28 10:00:36;;;;;;;16.05;12.35;;;;;;;24.97;65.70;98215.13;4997320;28;20350;-76
2022/08/28 10:03:32;;;;;;;18.10;12.30;;;;;;;25.01;65.83;98221.53;5008108;28;20480;-76
2022/08/28 10:06:17;;;;;;;17.23;12.52;;;;;;;25.10;65.32;98212.72;5009209;28;20096;-77
2022/08/28 10:09:00;;;;;;;14.55;11.38;;;;;;;25.10;64.83;98218.31;5002170;28;20104;-76
2022/08/28 10:11:32;;;;;;;17.10;13.23;;;;;;;25.12;64.26;98218.72;5008205;28;20428;-76
2022/08/28 10:14:11;;;;;;;15.80;12.40;;;;;;;25.14;64.50;98215.53;5010697;28;20052;-77
2022/08/28 10:17:15;;;;;;;14.88;11.45;;;;;;;25.16;64.27;98224.38;5007234;28;20026;-77
2022/08/28 10:19:53;;;;;;;13.65;10.55;;;;;;;25.15;64.16;98217.94;5005348;28;20037;-77
2022/08/28 10:22:29;;;;;;;17.23;12.00;;;;;;;25.23;64.06;98218.75;5010650;28;20045;-76
2022/08/28 10:25:13;;;;;;;14.98;10.90;;;;;;;25.32;64.58;98218.34;5007249;28;20038;-75
2022/08/28 10:28:23;;;;;;;15.35;11.50;;;;;;;25.44;63.90;98214.34;4999820;28;20030;-76
2022/08/28 10:31:09;;;;;;;14.55;11.15;;;;;;;25.41;63.76;98213.91;4948975;28;20520;-75
2022/08/28 10:34:13;;;;;;;15.90;12.15;;;;;;;25.39;63.17;98210.72;4998442;28;20455;-76
2022/08/28 10:36:38;;;;;;;14.73;11.93;;;;;;;25.47;63.25;98214.34;4982013;28;20045;-75
2022/08/28 10:39:04;;;;;;;14.85;11.65;;;;;;;25.54;63.36;98219.94;4998035;28;20756;-77
2022/08/28 10:41:42;;;;;;;15.13;11.43;;;;;;;25.65;63.28;98213.50;5004686;28;20053;-78
2022/08/28 10:44:14;;;;;;;15.05;11.63;;;;;;;25.66;63.16;98215.94;5004800;28;20038;-78
2022/08/28 10:46:51;;;;;;;14.80;11.88;;;;;;;25.71;62.88;98207.06;5004978;28;20057;-78
2022/08/28 10:49:43;;;;;;;14.52;11.43;;;;;;;25.80;62.96;98212.28;5001922;28;20029;-78
2022/08/28 10:52:22;;;;;;;13.13;11.57;;;;;;;25.90;62.11;98210.63;5009351;28;20072;-78
2022/08/28 10:54:47;;;;;;;;;;;;;;;25.95;62.29;98209.41;5009331;28;20026;-77
2022/08/28 10:57:35;;;;;;;14.35;10.55;;;;;;;26.02;62.24;98209.38;5008881;28;19910;-78
2022/08/28 11:00:11;;;;;;;11.15;9.20;;;;;;;26.11;61.79;98203.31;5004777;28;20095;-78
2022/08/28 11:02:40;;;;;;;14.63;11.35;;;;;;;26.20;61.38;98203.72;5001318;28;20030;-78
2022/08/28 11:05:07;;;;;;;12.60;9.02;;;;;;;26.28;61.09;98208.09;5000834;28;20559;-77
2022/08/28 11:07:53;;;;;;;12.38;8.38;;;;;;;26.28;59.63;98204.50;5006437;28;20080;-78
2022/08/28 11:10:27;;;;;;;12.23;8.95;;;;;;;26.28;59.09;98202.50;5007491;28;20042;-75
2022/08/28 11:12:53;;;;;;;12.43;9.98;;;;;;;26.30;59.06;98202.88;5007806;28;20099;-74
2022/08/28 11:15:30;;;;;;;12.93;10.18;;;;;;;26.35;59.60;98200.84;5005651;28;20480;-75
2022/08/28 11:18:16;;;;;;;14.98;11.25;;;;;;;26.37;59.60;98209.69;5005943;28;20826;-74
2022/08/28 11:20:59;;;;;;;13.35;11.30;;;;;;;26.37;59.60;98206.88;4992655;28;20042;-74
2022/08/28 11:23:42;;;;;;;13.35;11.13;;;;;;;26.39;59.52;98205.25;5006213;28;20034;-74
2022/08/28 11:26:13;;;;;;;13.90;10.60;;;;;;;26.36;59.67;98203.25;5002987;28;20022;-74
2022/08/28 11:28:40;;;;;;;13.80;11.40;;;;;;;26.37;59.70;98213.28;5007595;28;20033;-76
2022/08/28 11:31:06;;;;;;;12.07;10.77;;;;;;;26.37;59.81;98201.25;5006046;28;20030;-77
2022/08/28 11:33:42;;;;;;;13.93;11.40;;;;;;;26.33;59.59;98195.63;4999649;28;20038;-76
2022/08/28 11:36:09;;;;;;;14.52;11.05;;;;;;;26.30;59.47;98202.88;5014308;28;20149;-77
2022/08/28 11:38:41;;;;;;;12.25;9.98;;;;;;;26.28;59.90;98188.44;4996580;28;20026;-74
2022/08/28 11:41:21;;;;;;;13.57;11.05;;;;;;;26.32;59.94;98185.59;5000540;28;20030;-74